Time;durP1;ratioP1;P1;durP2;ratioP2;P2;SDS_P1;SDS_P2;PMS_P1;PMS_P2;Temp;Humidity;BMP_temperature;BMP_pressure;BME280_temperature;BME280_humidity;BME280_pressure;Samples;Min_cycle;Max_cycle;Signal;HPM_P1;HPM_P2
2022/03/07 00:01:35;;;;;;;9.00;4.50;;;4.30;95.30;;;;;;5102083;27;20082;-83
2022/03/07 00:04:02;;;;;;;9.65;3.90;;;4.30;95.50;;;;;;5102414;27;20047;-84
2022/03/07 00:06:28;;;;;;;5.95;3.60;;;4.30;95.40;;;;;;5118895;27;20050;-84
2022/03/07 00:08:54;;;;;;;10.57;4.47;;;4.20;95.10;;;;;;5119275;27;20394;-83
2022/03/07 00:11:20;;;;;;;9.55;4.47;;;4.10;95.00;;;;;;5101998;27;20450;-83
2022/03/07 00:13:46;;;;;;;10.60;4.43;;;4.10;95.30;;;;;;5102326;27;20398;-83
2022/03/07 00:16:12;;;;;;;7.80;4.32;;;4.00;95.10;;;;;;5119132;27;20073;-83
2022/03/07 00:18:39;;;;;;;8.95;4.15;;;3.90;95.10;;;;;;5101729;27;20126;-83
2022/03/07 00:21:09;;;;;;;8.48;4.47;;;3.80;95.20;;;;;;5118523;27;20137;-83
2022/03/07 00:23:34;;;;;;;9.45;4.43;;;3.70;95.30;;;;;;5119064;27;20478;-83
2022/03/07 00:26:00;;;;;;;9.88;4.60;;;3.60;95.30;;;;;;5102125;27;20050;-83
2022/03/07 00:28:26;;;;;;;11.18;4.80;;;3.60;95.50;;;;;;5102041;27;20488;-83
2022/03/07 00:30:51;;;;;;;15.82;5.60;;;3.60;95.60;;;;;;5118507;27;20425;-83
2022/03/07 00:33:17;;;;;;;11.82;4.68;;;3.70;95.70;;;;;;5101782;27;20054;-83
2022/03/07 00:35:43;;;;;;;9.43;4.45;;;3.80;95.70;;;;;;5118266;27;20058;-83
2022/03/07 00:38:09;;;;;;;9.70;3.95;;;3.70;95.30;;;;;;5118697;27;20537;-83
2022/03/07 00:40:35;;;;;;;8.85;3.50;;;3.60;95.30;;;;;;5118394;27;20129;-83
2022/03/07 00:43:01;;;;;;;6.97;3.40;;;3.60;95.40;;;;;;5101396;27;20104;-82
2022/03/07 00:45:26;;;;;;;7.20;3.30;;;3.50;95.40;;;;;;5101759;27;20054;-82
2022/03/07 00:47:52;;;;;;;7.55;3.40;;;3.50;95.50;;;;;;5118483;27;20508;-83
2022/03/07 00:50:18;;;;;;;7.25;3.25;;;3.50;95.70;;;;;;5101221;27;20039;-82
2022/03/07 00:52:43;;;;;;;7.68;3.50;;;3.60;95.80;;;;;;5101490;27;20427;-82
2022/03/07 00:55:09;;;;;;;7.25;3.15;;;3.70;95.90;;;;;;5118523;27;20125;-82
2022/03/07 00:57:36;;;;;;;7.50;3.35;;;3.70;95.70;;;;;;5118232;27;20097;-82
2022/03/07 01:00:03;;;;;;;6.47;3.20;;;3.60;95.60;;;;;;5101385;27;20513;-82
2022/03/07 01:02:29;;;;;;;5.85;2.92;;;3.60;95.70;;;;;;5118436;27;20044;-82
2022/03/07 01:04:55;;;;;;;7.72;2.90;;;3.60;95.40;;;;;;5118168;27;20055;-82
2022/03/07 01:07:21;;;;;;;7.00;2.92;;;3.50;95.40;;;;;;5117672;27;20121;-82
2022/03/07 01:09:47;;;;;;;5.65;2.50;;;3.50;95.50;;;;;;5117841;27;20042;-82
2022/03/07 01:12:13;;;;;;;7.68;2.78;;;3.50;95.50;;;;;;5100973;27;20043;-82
2022/03/07 01:14:39;;;;;;;9.15;2.92;;;3.40;95.70;;;;;;5117889;27;20367;-82
2022/03/07 01:17:05;;;;;;;6.25;2.58;;;3.50;95.70;;;;;;5117949;27;20394;-82
2022/03/07 01:19:30;;;;;;;7.63;3.00;;;3.60;95.70;;;;;;5084235;27;20043;-82
2022/03/07 01:21:56;;;;;;;7.68;2.60;;;3.50;95.50;;;;;;5117482;27;20055;-82
2022/03/07 01:24:22;;;;;;;4.28;2.38;;;3.40;95.60;;;;;;5100809;27;20126;-82
2022/03/07 01:26:47;;;;;;;6.82;2.65;;;3.40;95.60;;;;;;5118207;27;20043;-82
2022/03/07 01:29:13;;;;;;;7.05;2.25;;;3.40;95.60;;;;;;5116817;27;20046;-82
2022/03/07 01:31:39;;;;;;;4.57;2.45;;;3.30;95.50;;;;;;5100698;27;20112;-82
2022/03/07 01:34:04;;;;;;;8.18;2.80;;;3.20;95.40;;;;;;5101156;27;20419;-82
2022/03/07 01:36:30;;;;;;;6.70;2.40;;;3.20;95.60;;;;;;5066673;27;20047;-82
2022/03/07 01:38:56;;;;;;;6.95;2.40;;;3.20;95.80;;;;;;5117388;27;20047;-82
2022/03/07 01:41:21;;;;;;;5.72;2.03;;;3.10;95.70;;;;;;5100187;27;20050;-82
2022/03/07 01:43:47;;;;;;;3.63;2.15;;;3.10;95.70;;;;;;5100219;27;20043;-82
2022/03/07 01:46:13;;;;;;;8.85;2.45;;;3.10;95.80;;;;;;5117294;27;20050;-82
2022/03/07 01:48:39;;;;;;;5.47;2.30;;;3.10;95.80;;;;;;5116898;27;20046;-82
2022/03/07 01:51:07;;;;;;;4.30;2.20;;;3.10;95.90;;;;;;5117311;27;20054;-82
2022/03/07 01:53:33;;;;;;;5.60;2.35;;;3.10;95.90;;;;;;5117298;27;20089;-82
2022/03/07 01:55:59;;;;;;;6.10;3.00;;;3.10;95.90;;;;;;5117413;27;20039;-82
2022/03/07 01:58:25;;;;;;;6.13;3.00;;;3.20;95.80;;;;;;5100189;27;20066;-82
2022/03/07 02:00:51;;;;;;;8.20;2.45;;;3.10;95.70;;;;;;5100128;27;20047;-82
2022/03/07 02:03:16;;;;;;;10.18;3.05;;;3.10;95.80;;;;;;5116761;27;20039;-82
2022/03/07 02:05:46;;;;;;;4.65;2.70;;;3.00;95.80;;;;;;5099754;27;20047;-82
2022/03/07 02:08:12;;;;;;;11.00;3.80;;;2.90;95.70;;;;;;5117231;27;20047;-82
2022/03/07 02:10:39;;;;;;;5.95;3.88;;;2.90;96.10;;;;;;5100237;27;20050;-82
2022/03/07 02:13:16;;;;;;;8.65;4.25;;;2.90;96.30;;;;;;5116800;27;20036;-81
2022/03/07 02:15:42;;;;;;;6.35;3.22;;;3.00;96.50;;;;;;5116792;27;20039;-82
2022/03/07 02:18:08;;;;;;;9.48;3.50;;;3.00;96.40;;;;;;5117043;27;20042;-82
2022/03/07 02:20:34;;;;;;;9.70;3.53;;;2.90;96.20;;;;;;5099813;27;20046;-82
2022/03/07 02:22:59;;;;;;;6.47;4.03;;;2.90;96.20;;;;;;5099633;28;20059;-82
2022/03/07 02:25:25;;;;;;;6.82;3.35;;;3.00;96.30;;;;;;5082895;27;20091;-81
2022/03/07 02:27:51;;;;;;;4.95;2.88;;;2.90;96.10;;;;;;5099671;27;20043;-81
2022/03/07 02:30:17;;;;;;;6.20;3.15;;;2.90;96.10;;;;;;5116384;28;20482;-82
2022/03/07 02:32:43;;;;;;;4.53;2.60;;;2.80;95.90;;;;;;5116547;27;20440;-82
2022/03/07 02:35:13;;;;;;;4.70;3.00;;;2.90;96.10;;;;;;5099485;28;20116;-82
2022/03/07 02:37:40;;;;;;;8.15;3.22;;;2.90;96.10;;;;;;5099546;28;20096;-82
2022/03/07 02:40:06;;;;;;;6.65;3.10;;;3.00;96.30;;;;;;5116318;28;20446;-82
2022/03/07 02:42:32;;;;;;;5.22;3.17;;;2.90;96.00;;;;;;5116226;28;20054;-82
2022/03/07 02:44:57;;;;;;;7.55;3.15;;;2.90;96.00;;;;;;5082644;28;20051;-82
2022/03/07 02:47:23;;;;;;;8.13;3.50;;;2.90;96.10;;;;;;5082539;28;20085;-82
2022/03/07 02:49:50;;;;;;;7.72;3.97;;;3.00;96.30;;;;;;5099209;28;20074;-82
2022/03/07 02:52:16;;;;;;;6.15;3.20;;;3.00;96.40;;;;;;5099435;28;20051;-82
2022/03/07 02:54:41;;;;;;;7.30;3.35;;;3.10;96.10;;;;;;5099381;28;20054;-82
2022/03/07 02:57:08;;;;;;;5.20;2.83;;;3.00;95.70;;;;;;5082255;28;20050;-82
2022/03/07 02:59:34;;;;;;;6.82;3.10;;;3.00;95.60;;;;;;5082883;28;20051;-82
2022/03/07 03:02:00;;;;;;;6.28;3.22;;;2.80;95.70;;;;;;5115842;28;20158;-82
2022/03/07 03:04:25;;;;;;;5.88;3.00;;;2.70;96.00;;;;;;5115849;28;20176;-82
2022/03/07 03:06:51;;;;;;;10.48;2.97;;;2.70;96.10;;;;;;5098640;28;20051;-82
2022/03/07 03:09:17;;;;;;;6.85;3.25;;;2.70;96.10;;;;;;5116862;28;20043;-82
2022/03/07 03:11:42;;;;;;;4.68;2.85;;;2.60;96.00;;;;;;5099265;28;20124;-82
2022/03/07 03:14:08;;;;;;;6.20;3.13;;;2.60;95.90;;;;;;5116246;28;20047;-81
2022/03/07 03:16:34;;;;;;;6.35;3.60;;;2.50;95.90;;;;;;5116087;28;20075;-81
2022/03/07 03:19:00;;;;;;;8.48;3.22;;;2.50;96.10;;;;;;5116021;28;20084;-81
2022/03/07 03:21:25;;;;;;;6.57;3.22;;;2.60;96.30;;;;;;5096786;28;20142;-82
2022/03/07 03:23:51;;;;;;;5.97;3.17;;;2.60;96.10;;;;;;5115909;28;20052;-81
2022/03/07 03:26:17;;;;;;;6.43;3.08;;;2.60;96.10;;;;;;5082185;28;20142;-82
2022/03/07 03:28:42;;;;;;;8.88;3.05;;;2.70;96.10;;;;;;5115853;28;20043;-82
2022/03/07 03:31:11;;;;;;;5.85;2.95;;;2.60;95.80;;;;;;5098983;28;20043;-82
2022/03/07 03:33:38;;;;;;;6.32;3.17;;;2.60;95.80;;;;;;5116181;28;20047;-82
2022/03/07 03:36:04;;;;;;;6.65;3.20;;;2.50;95.90;;;;;;5098423;28;20050;-82
2022/03/07 03:38:30;;;;;;;5.25;3.05;;;2.50;96.00;;;;;;5099423;28;20470;-82
2022/03/07 03:40:55;;;;;;;6.35;3.20;;;2.40;96.00;;;;;;5081795;28;20046;-82
2022/03/07 03:43:22;;;;;;;6.38;3.42;;;2.40;96.10;;;;;;5098869;28;20047;-82
2022/03/07 03:45:48;;;;;;;4.35;2.90;;;2.50;96.10;;;;;;5116035;28;20096;-82
2022/03/07 03:48:13;;;;;;;4.70;2.65;;;2.50;96.10;;;;;;5098892;28;20051;-82
2022/03/07 03:50:39;;;;;;;4.15;2.63;;;2.60;96.00;;;;;;5115569;28;20045;-82
2022/03/07 03:53:04;;;;;;;5.80;3.20;;;2.50;95.80;;;;;;5101009;27;20367;-82
2022/03/07 03:55:30;;;;;;;9.73;3.22;;;2.50;96.00;;;;;;5102898;27;20065;-82
2022/03/07 03:57:56;;;;;;;4.50;2.83;;;2.40;96.40;;;;;;5102370;27;20039;-82
2022/03/07 04:00:23;;;;;;;3.50;2.53;;;2.40;96.60;;;;;;5119846;27;20100;-82
2022/03/07 04:02:49;;;;;;;3.55;2.50;;;2.50;96.70;;;;;;5102573;27;20047;-82
2022/03/07 04:05:16;;;;;;;3.90;2.70;;;2.50;96.40;;;;;;5119143;27;20084;-82
2022/03/07 04:07:43;;;;;;;3.88;2.60;;;2.40;96.30;;;;;;5118582;27;20087;-82
2022/03/07 04:10:13;;;;;;;4.05;2.25;;;2.30;96.30;;;;;;5118966;27;20043;-82
2022/03/07 04:12:39;;;;;;;7.20;2.30;;;2.30;96.40;;;;;;5119036;27;20047;-82
2022/03/07 04:15:05;;;;;;;3.90;2.13;;;2.30;96.40;;;;;;5102047;27;20135;-81
2022/03/07 04:17:30;;;;;;;2.67;2.03;;;2.30;96.30;;;;;;5118637;27;20547;-82
2022/03/07 04:19:56;;;;;;;4.35;2.13;;;2.30;96.40;;;;;;5118831;27;20055;-82
2022/03/07 04:22:22;;;;;;;3.78;2.15;;;2.30;96.40;;;;;;5101827;27;20059;-82
2022/03/07 04:24:47;;;;;;;3.05;2.00;;;2.30;96.20;;;;;;5118477;27;20395;-81
2022/03/07 04:27:13;;;;;;;3.15;2.10;;;2.30;96.20;;;;;;5101203;27;20047;-82
2022/03/07 04:29:39;;;;;;;6.72;2.38;;;2.30;96.20;;;;;;5101169;27;20036;-82
2022/03/07 04:32:05;;;;;;;3.83;2.25;;;2.20;95.90;;;;;;5101331;27;20043;-82
2022/03/07 04:34:30;;;;;;;3.38;2.40;;;2.20;96.20;;;;;;5101451;27;20096;-82
2022/03/07 04:36:56;;;;;;;4.80;2.30;;;2.10;96.30;;;;;;5100994;27;20039;-82
2022/03/07 04:39:23;;;;;;;5.35;2.53;;;2.20;96.30;;;;;;5118417;27;20050;-82
2022/03/07 04:41:49;;;;;;;6.70;3.00;;;2.20;96.30;;;;;;5118271;27;20062;-82
2022/03/07 04:44:15;;;;;;;7.35;2.88;;;2.20;96.20;;;;;;5118263;27;20474;-82
2022/03/07 04:46:41;;;;;;;4.28;2.78;;;2.20;96.10;;;;;;5101672;27;20544;-82
2022/03/07 04:49:10;;;;;;;4.57;2.95;;;2.20;96.30;;;;;;5101616;27;20042;-82
2022/03/07 04:51:36;;;;;;;11.25;3.10;;;2.20;96.30;;;;;;5101598;27;20401;-82
2022/03/07 04:54:01;;;;;;;6.15;2.88;;;2.20;96.20;;;;;;5118060;27;20047;-82
2022/03/07 04:56:27;;;;;;;5.95;3.17;;;2.10;96.40;;;;;;5100996;27;20072;-82
2022/03/07 04:58:53;;;;;;;6.30;2.95;;;2.10;96.40;;;;;;5100906;27;20043;-82
2022/03/07 05:01:18;;;;;;;7.43;2.70;;;2.10;96.60;;;;;;5084182;27;20501;-82
2022/03/07 05:03:44;;;;;;;5.10;2.60;;;2.00;96.50;;;;;;5083219;27;20047;-82
2022/03/07 05:06:09;;;;;;;5.63;2.65;;;1.90;96.50;;;;;;5100367;27;20497;-82
2022/03/07 05:08:38;;;;;;;4.32;2.30;;;1.90;96.40;;;;;;5083867;27;20045;-83
2022/03/07 05:11:05;;;;;;;4.38;2.42;;;2.00;96.40;;;;;;5100264;27;20043;-82
2022/03/07 05:13:32;;;;;;;10.73;2.70;;;2.10;96.40;;;;;;5117608;27;20043;-82
2022/03/07 05:15:57;;;;;;;5.68;3.17;;;2.00;96.30;;;;;;5117668;27;20493;-82
2022/03/07 05:18:23;;;;;;;4.65;2.55;;;1.90;96.20;;;;;;5117562;27;20046;-82
2022/03/07 05:20:49;;;;;;;5.25;2.75;;;1.90;96.10;;;;;;5100239;27;20057;-82
2022/03/07 05:23:14;;;;;;;7.70;3.03;;;1.90;96.30;;;;;;5117409;27;20189;-82
2022/03/07 05:25:40;;;;;;;9.20;3.03;;;2.00;96.30;;;;;;5066538;27;20076;-82
2022/03/07 05:28:07;;;;;;;7.75;3.20;;;2.00;96.30;;;;;;5117261;27;20481;-83
2022/03/07 05:30:33;;;;;;;4.90;2.75;;;2.10;96.10;;;;;;5100052;27;20509;-82
2022/03/07 05:32:58;;;;;;;5.53;3.70;;;1.90;96.00;;;;;;5117134;27;20047;-83
2022/03/07 05:35:24;;;;;;;4.25;2.45;;;1.80;96.10;;;;;;5083336;27;20047;-83
2022/03/07 05:37:50;;;;;;;6.05;2.95;;;2.00;96.20;;;;;;5116697;27;20058;-83
2022/03/07 05:40:17;;;;;;;4.78;2.75;;;2.00;96.00;;;;;;5100018;27;20096;-83
2022/03/07 05:42:44;;;;;;;4.20;2.58;;;1.90;95.90;;;;;;5117273;27;20043;-82
2022/03/07 05:45:11;;;;;;;5.97;3.22;;;2.00;96.20;;;;;;5099896;27;20042;-83
2022/03/07 05:47:38;;;;;;;7.13;2.80;;;2.10;96.10;;;;;;5116787;27;20546;-83
2022/03/07 05:50:05;;;;;;;5.82;2.83;;;2.10;96.10;;;;;;5099787;27;20058;-83
2022/03/07 05:52:31;;;;;;;5.97;2.60;;;2.10;95.90;;;;;;5116392;27;20130;-83
2022/03/07 05:54:56;;;;;;;5.05;2.63;;;2.00;95.80;;;;;;5116728;27;20118;-82
2022/03/07 05:57:22;;;;;;;4.72;2.60;;;2.00;95.90;;;;;;5116732;27;20039;-83
2022/03/07 05:59:48;;;;;;;5.20;3.00;;;2.00;95.80;;;;;;5099444;27;20043;-83
2022/03/07 06:02:14;;;;;;;5.63;2.80;;;1.90;95.90;;;;;;5116591;27;20043;-83
2022/03/07 06:04:41;;;;;;;6.07;2.95;;;1.80;95.80;;;;;;5099608;27;20045;-83
2022/03/07 06:07:07;;;;;;;6.60;2.70;;;1.90;96.10;;;;;;5116113;27;20078;-82
2022/03/07 06:09:33;;;;;;;5.82;2.80;;;1.80;95.90;;;;;;5116393;27;20533;-83
2022/03/07 06:11:59;;;;;;;5.63;3.28;;;1.80;95.90;;;;;;5100013;27;20082;-83
2022/03/07 06:14:24;;;;;;;7.72;4.45;;;1.90;96.20;;;;;;5099327;27;20062;-83
2022/03/07 06:16:50;;;;;;;12.50;4.20;;;1.80;96.10;;;;;;5116288;27;20054;-83
2022/03/07 06:19:16;;;;;;;7.40;4.15;;;1.80;96.00;;;;;;5116334;27;20039;-83
2022/03/07 06:21:42;;;;;;;9.02;4.18;;;1.70;96.00;;;;;;5116176;27;20054;-82
2022/03/07 06:24:08;;;;;;;6.03;4.05;;;1.70;96.00;;;;;;5099878;27;20189;-82
2022/03/07 06:26:35;;;;;;;8.30;4.38;;;1.60;96.10;;;;;;5099175;27;20147;-83
2022/03/07 06:29:02;;;;;;;11.73;4.47;;;1.70;96.40;;;;;;5099136;27;20054;-83
2022/03/07 06:31:28;;;;;;;11.75;3.92;;;1.70;96.50;;;;;;5116259;27;20126;-83
2022/03/07 06:33:53;;;;;;;6.38;3.50;;;1.80;96.50;;;;;;5116124;27;20488;-83
2022/03/07 06:36:19;;;;;;;8.38;4.13;;;1.80;96.70;;;;;;5064836;28;20074;-83
2022/03/07 06:38:45;;;;;;;8.95;4.03;;;1.90;96.90;;;;;;5116384;28;20039;-83
2022/03/07 06:41:10;;;;;;;10.48;3.85;;;1.80;96.90;;;;;;5099659;28;20046;-83
2022/03/07 06:43:37;;;;;;;8.38;4.32;;;1.70;96.90;;;;;;5115858;28;20470;-83
2022/03/07 06:46:03;;;;;;;8.15;3.55;;;1.70;97.10;;;;;;5100069;28;20394;-82
2022/03/07 06:48:29;;;;;;;8.52;3.53;;;1.70;97.00;;;;;;5106563;28;20042;-82
2022/03/07 06:50:54;;;;;;;7.32;3.50;;;1.70;97.10;;;;;;5104901;28;20075;-82
2022/03/07 06:53:20;;;;;;;6.75;3.10;;;1.70;97.10;;;;;;5115948;28;20043;-83
2022/03/07 06:55:46;;;;;;;7.53;3.75;;;1.70;97.20;;;;;;5099567;28;20092;-83
2022/03/07 06:58:11;;;;;;;7.82;3.72;;;1.70;97.30;;;;;;5115936;28;20050;-83
2022/03/07 07:00:37;;;;;;;6.68;3.25;;;1.80;97.40;;;;;;5099004;28;20079;-83
2022/03/07 07:03:03;;;;;;;7.85;3.88;;;1.90;97.30;;;;;;5098375;28;20055;-83
2022/03/07 07:05:29;;;;;;;8.57;3.30;;;1.90;97.20;;;;;;5098993;28;20047;-83
2022/03/07 07:07:55;;;;;;;11.55;3.92;;;2.00;97.20;;;;;;5115436;28;20121;-83
2022/03/07 07:10:21;;;;;;;5.32;3.58;;;2.00;97.10;;;;;;5115590;28;20506;-83
2022/03/07 07:12:48;;;;;;;10.25;4.13;;;2.10;97.20;;;;;;5098807;28;20066;-83
2022/03/07 07:15:14;;;;;;;6.80;3.25;;;2.20;97.30;;;;;;5098782;28;20055;-83
2022/03/07 07:17:40;;;;;;;7.10;3.65;;;2.10;97.10;;;;;;5065350;28;20039;-83
2022/03/07 07:20:07;;;;;;;7.88;4.78;;;2.20;97.20;;;;;;5082060;28;20038;-83
2022/03/07 07:22:33;;;;;;;9.68;4.93;;;2.20;97.20;;;;;;5098394;28;20204;-82
2022/03/07 07:24:59;;;;;;;7.95;4.45;;;2.30;97.20;;;;;;5098503;28;20168;-83
2022/03/07 07:27:25;;;;;;;9.18;4.85;;;2.30;97.20;;;;;;5083127;27;20183;-83
2022/03/07 07:29:50;;;;;;;8.45;4.28;;;2.40;97.20;;;;;;5102426;27;20125;-83
2022/03/07 07:32:16;;;;;;;11.75;4.85;;;2.50;97.30;;;;;;5085779;27;20050;-83
2022/03/07 07:34:42;;;;;;;7.97;4.57;;;2.50;97.20;;;;;;5102738;27;20048;-83
2022/03/07 07:37:08;;;;;;;11.23;4.78;;;2.60;97.10;;;;;;5118955;27;20053;-83
2022/03/07 07:39:34;;;;;;;7.28;4.30;;;2.60;97.00;;;;;;5085583;27;20134;-83
2022/03/07 07:41:59;;;;;;;10.73;5.07;;;2.80;97.10;;;;;;5085502;27;20203;-83
2022/03/07 07:44:26;;;;;;;11.38;4.00;;;2.80;97.20;;;;;;5119208;27;20043;-83
2022/03/07 07:46:53;;;;;;;8.13;4.10;;;3.00;97.20;;;;;;5102673;27;20130;-83
2022/03/07 07:49:19;;;;;;;10.07;4.05;;;3.20;97.10;;;;;;5126487;27;20039;-83
2022/03/07 07:51:45;;;;;;;9.50;4.70;;;3.20;97.00;;;;;;5121698;27;20134;-83
2022/03/07 07:54:11;;;;;;;12.32;5.07;;;3.40;97.10;;;;;;5122568;27;20081;-82
2022/03/07 07:56:36;;;;;;;8.02;4.35;;;3.50;97.10;;;;;;5122543;27;20043;-81
2022/03/07 07:59:02;;;;;;;8.20;4.63;;;3.70;97.40;;;;;;5140089;27;20046;-75
2022/03/07 08:01:29;;;;;;;9.85;4.97;;;3.80;97.60;;;;;;5122424;27;20141;-77
2022/03/07 08:03:55;;;;;;;11.90;6.35;;;3.90;97.80;;;;;;5105876;27;20427;-75
2022/03/07 08:06:20;;;;;;;15.02;6.32;;;4.00;97.90;;;;;;5138833;27;20051;-74
2022/03/07 08:08:46;;;;;;;10.32;5.20;;;4.10;98.10;;;;;;5105381;27;20038;-74
2022/03/07 08:11:12;;;;;;;13.15;6.40;;;4.10;98.30;;;;;;5139028;27;20047;-74
2022/03/07 08:13:38;;;;;;;16.25;6.07;;;4.30;98.30;;;;;;5139270;27;20050;-74
2022/03/07 08:16:04;;;;;;;10.88;5.97;;;4.40;98.40;;;;;;5139302;27;20042;-74
2022/03/07 08:18:30;;;;;;;13.65;6.80;;;4.50;98.40;;;;;;5122503;27;20175;-74
2022/03/07 08:20:59;;;;;;;14.63;6.68;;;4.50;98.50;;;;;;5139363;27;20129;-75
2022/03/07 08:23:26;;;;;;;15.10;6.93;;;4.60;98.50;;;;;;5138931;27;20077;-72
2022/03/07 08:25:51;;;;;;;13.70;5.85;;;4.70;98.50;;;;;;5145294;27;20524;-74
2022/03/07 08:28:17;;;;;;;14.27;6.68;;;4.70;98.60;;;;;;5145122;27;20093;-74
2022/03/07 08:30:43;;;;;;;14.85;6.78;;;4.80;98.50;;;;;;5138855;27;20141;-73
2022/03/07 08:33:08;;;;;;;14.50;5.07;;;4.90;98.60;;;;;;5139230;27;20050;-73
2022/03/07 08:35:34;;;;;;;17.92;6.57;;;5.10;98.50;;;;;;5138888;27;20529;-72
2022/03/07 08:38:00;;;;;;;10.65;6.20;;;5.20;98.40;;;;;;5138131;27;20073;-72
2022/03/07 08:40:25;;;;;;;9.65;4.95;;;5.20;98.40;;;;;;5104797;27;20055;-72
2022/03/07 08:42:51;;;;;;;12.75;6.38;;;5.30;98.30;;;;;;5121830;27;20046;-73
2022/03/07 08:45:17;;;;;;;18.08;5.95;;;5.20;98.40;;;;;;5121768;27;20053;-73
2022/03/07 08:47:43;;;;;;;9.40;4.85;;;5.30;98.50;;;;;;5138895;27;20054;-72
2022/03/07 08:50:11;;;;;;;10.48;4.82;;;5.20;98.50;;;;;;5138617;27;20115;-73
2022/03/07 08:52:37;;;;;;;8.45;4.68;;;5.40;98.50;;;;;;5138779;27;20133;-73
2022/03/07 08:55:04;;;;;;;14.05;5.35;;;5.40;98.40;;;;;;5138750;27;20042;-73
2022/03/07 08:57:31;;;;;;;11.82;4.28;;;5.30;98.50;;;;;;5138850;27;20053;-73
2022/03/07 08:59:56;;;;;;;11.93;4.57;;;5.40;98.50;;;;;;5122682;27;20050;-75
2022/03/07 09:02:22;;;;;;;11.40;4.43;;;5.50;98.50;;;;;;5121223;27;20134;-75
2022/03/07 09:04:48;;;;;;;14.52;3.90;;;5.50;98.40;;;;;;5121875;27;20635;-75
2022/03/07 09:07:14;;;;;;;7.72;3.95;;;5.70;98.30;;;;;;5137640;27;20121;-74
2022/03/07 09:09:39;;;;;;;12.80;4.47;;;5.90;98.40;;;;;;5138805;27;20076;-75
2022/03/07 09:12:08;;;;;;;8.25;3.53;;;5.90;98.10;;;;;;5122707;27;20046;-76
2022/03/07 09:14:34;;;;;;;11.13;4.18;;;5.90;98.00;;;;;;5157714;27;20133;-74
2022/03/07 09:16:59;;;;;;;6.95;3.05;;;6.00;98.00;;;;;;5138925;27;20046;-73
2022/03/07 09:19:25;;;;;;;7.78;3.45;;;6.10;97.80;;;;;;5138494;27;20046;-73
2022/03/07 09:21:51;;;;;;;9.90;3.55;;;6.10;97.70;;;;;;5138350;27;20093;-74
2022/03/07 09:24:17;;;;;;;7.55;3.50;;;6.00;97.70;;;;;;5138344;27;20118;-80
2022/03/07 09:26:43;;;;;;;8.13;3.53;;;5.90;98.00;;;;;;5138403;27;20046;-74
2022/03/07 09:29:10;;;;;;;11.70;3.83;;;6.10;98.10;;;;;;5138245;27;20050;-74
2022/03/07 09:31:36;;;;;;;7.93;3.20;;;6.20;97.90;;;;;;5138200;27;20053;-74
2022/03/07 09:34:02;;;;;;;7.60;3.72;;;6.40;97.80;;;;;;5120854;27;20086;-74
2022/03/07 09:36:28;;;;;;;11.57;3.45;;;6.40;97.70;;;;;;5138532;27;20043;-74
2022/03/07 09:38:54;;;;;;;10.98;3.38;;;6.50;97.70;;;;;;5137855;27;20103;-74
2022/03/07 09:41:20;;;;;;;11.23;3.22;;;6.40;97.50;;;;;;5121564;27;20133;-75
2022/03/07 09:43:46;;;;;;;6.72;3.15;;;6.60;97.60;;;;;;5120612;27;20062;-74
2022/03/07 09:46:14;;;;;;;6.43;2.95;;;6.80;97.60;;;;;;5138014;27;20389;-74
2022/03/07 09:48:43;;;;;;;8.60;3.30;;;7.00;97.30;;;;;;5137712;27;20177;-75
2022/03/07 09:51:10;;;;;;;6.60;2.92;;;7.20;96.90;;;;;;5136816;27;20470;-74
2022/03/07 09:53:36;;;;;;;8.18;3.33;;;7.30;96.90;;;;;;5137897;27;20126;-76
2022/03/07 09:56:01;;;;;;;8.93;2.85;;;7.40;96.90;;;;;;5137831;27;20434;-74
2022/03/07 09:58:27;;;;;;;9.82;2.97;;;7.60;96.80;;;;;;5137504;27;20058;-75
2022/03/07 10:01:03;;;;;;;9.15;3.03;;;7.50;96.70;;;;;;5137731;27;20096;-77
2022/03/07 10:03:30;;;;;;;9.45;3.05;;;7.60;96.80;;;;;;5138357;27;20054;-77
2022/03/07 10:05:55;;;;;;;8.82;2.88;;;7.90;96.60;;;;;;5137502;27;20415;-75
2022/03/07 10:08:25;;;;;;;10.18;2.90;;;8.00;96.40;;;;;;5103729;27;20091;-76
2022/03/07 10:10:52;;;;;;;8.27;2.67;;;8.10;96.20;;;;;;5137058;27;20076;-76
2022/03/07 10:13:19;;;;;;;10.93;3.42;;;8.20;96.10;;;;;;5120451;27;20035;-77
2022/03/07 10:15:58;;;;;;;16.00;2.42;;;8.30;95.60;;;;;;5120507;27;20397;-74
2022/03/07 10:18:24;;;;;;;4.50;1.83;;;8.30;95.60;;;;;;5137575;27;20058;-74
2022/03/07 10:20:53;;;;;;;8.23;2.20;;;8.40;95.40;;;;;;5137426;27;20064;-76
2022/03/07 10:23:20;;;;;;;8.63;2.15;;;8.30;95.40;;;;;;5136999;27;20491;-76
2022/03/07 10:25:46;;;;;;;6.63;2.22;;;8.40;95.20;;;;;;5120194;27;20049;-76
2022/03/07 10:28:12;;;;;;;7.45;2.35;;;8.80;95.20;;;;;;5137412;27;20042;-76
2022/03/07 10:30:38;;;;;;;4.50;1.95;;;9.10;94.90;;;;;;5133179;27;20095;-78
2022/03/07 10:33:12;;;;;;;6.00;2.03;;;9.10;94.70;;;;;;5105322;27;20058;-78
2022/03/07 10:35:48;;;;;;;5.05;1.98;;;9.20;94.30;;;;;;5136067;27;20038;-77
2022/03/07 10:38:15;;;;;;;;;;;9.50;94.00;;;;;;5120368;27;20412;-75
2022/03/07 10:40:47;;;;;;;10.38;1.88;;;9.70;93.40;;;;;;5119571;27;19963;-75
2022/03/07 10:43:13;;;;;;;4.65;1.60;;;10.00;93.50;;;;;;5119780;27;20485;-75
2022/03/07 10:45:56;;;;;;;6.40;1.25;;;10.30;92.90;;;;;;5119919;27;20065;-75
2022/03/07 10:48:24;;;;;;;5.57;1.88;;;10.70;92.80;;;;;;5112493;28;20051;-75
2022/03/07 10:50:55;;;;;;;5.78;1.65;;;11.00;93.00;;;;;;5114997;28;20036;-76
2022/03/07 10:53:21;;;;;;;6.20;2.05;;;11.00;92.50;;;;;;5099462;28;20043;-75
2022/03/07 10:55:59;;;;;;;4.25;1.50;;;10.90;92.40;;;;;;5116130;28;20493;-74
2022/03/07 10:58:26;;;;;;;6.07;1.77;;;11.20;92.00;;;;;;5116439;28;20477;-75
2022/03/07 11:00:58;;;;;;;4.60;1.60;;;11.00;91.20;;;;;;5099766;27;20131;-75
2022/03/07 11:03:29;;;;;;;4.22;1.60;;;10.50;91.80;;;;;;5103588;27;20115;-75
2022/03/07 11:05:55;;;;;;;5.22;1.63;;;10.30;91.70;;;;;;5119714;27;20049;-75
2022/03/07 11:08:22;;;;;;;5.55;1.92;;;10.30;92.10;;;;;;5120415;27;20134;-75
2022/03/07 11:10:53;;;;;;;6.88;1.70;;;10.50;91.80;;;;;;5120192;27;20039;-75
2022/03/07 11:13:25;;;;;;;6.10;1.50;;;10.40;91.80;;;;;;5120087;27;20055;-75
2022/03/07 11:15:57;;;;;;;8.50;2.00;;;10.90;91.80;;;;;;5121057;27;20081;-75
2022/03/07 11:18:24;;;;;;;6.88;1.60;;;11.20;91.40;;;;;;5120206;27;20047;-76
2022/03/07 11:20:50;;;;;;;5.68;1.67;;;11.60;91.30;;;;;;5103179;27;20126;-76
2022/03/07 11:23:17;;;;;;;5.18;1.60;;;11.80;90.40;;;;;;5101893;27;20484;-75
2022/03/07 11:25:47;;;;;;;6.00;1.35;;;12.10;89.00;;;;;;5118081;27;20055;-76
2022/03/07 11:28:14;;;;;;;5.18;1.42;;;12.30;89.20;;;;;;5101116;27;20096;-75
2022/03/07 11:30:42;;;;;;;4.97;1.40;;;12.60;88.40;;;;;;5099753;27;20130;-77
2022/03/07 11:33:33;;;;;;;3.88;1.35;;;12.70;88.10;;;;;;5127849;27;20430;-77
2022/03/07 11:36:01;;;;;;;2.20;1.10;;;12.70;87.10;;;;;;5123242;27;20085;-76
2022/03/07 11:38:31;;;;;;;6.47;1.58;;;12.60;87.00;;;;;;5119342;27;20412;-77
2022/03/07 11:41:12;;;;;;;5.47;1.50;;;12.60;88.20;;;;;;5103044;27;20090;-76
2022/03/07 11:43:49;;;;;;;4.57;1.42;;;12.90;88.00;;;;;;5133312;27;20550;-77
2022/03/07 11:46:47;;;;;;;3.35;1.10;;;13.30;86.60;;;;;;5121277;27;20050;-77
2022/03/07 11:49:26;;;;;;;4.32;0.98;;;13.10;84.90;;;;;;5106276;27;20058;-76
2022/03/07 11:52:00;;;;;;;4.43;1.65;;;13.30;85.40;;;;;;5105025;27;20047;-79
2022/03/07 11:54:26;;;;;;;3.92;1.30;;;13.40;84.90;;;;;;5102304;27;20043;-80
2022/03/07 11:57:03;;;;;;;3.83;1.13;;;12.90;85.50;;;;;;5119681;27;20386;-80
2022/03/07 11:59:30;;;;;;;5.20;1.52;;;12.60;85.30;;;;;;5119619;27;20478;-80
2022/03/07 12:01:56;;;;;;;3.60;1.10;;;12.60;85.80;;;;;;5102472;27;20035;-75
2022/03/07 12:04:22;;;;;;;5.95;1.20;;;12.80;86.00;;;;;;5119664;27;20084;-76
2022/03/07 12:06:51;;;;;;;8.15;1.33;;;12.70;86.20;;;;;;5118934;27;20047;-77
2022/03/07 12:09:32;;;;;;;4.00;1.33;;;12.60;86.30;;;;;;5137257;27;20049;-76
2022/03/07 12:12:21;;;;;;;5.65;1.60;;;12.90;84.90;;;;;;5102300;27;20082;-75
2022/03/07 12:14:47;;;;;;;5.03;1.50;;;13.10;85.30;;;;;;5101773;27;20047;-75
2022/03/07 12:17:26;;;;;;;4.43;1.80;;;12.90;84.60;;;;;;5119361;27;20047;-75
2022/03/07 12:19:59;;;;;;;3.25;1.20;;;12.10;86.20;;;;;;5102455;27;20043;-75
2022/03/07 12:22:27;;;;;;;4.47;1.20;;;12.00;85.30;;;;;;5084849;27;20410;-75
2022/03/07 12:24:56;;;;;;;3.67;1.13;;;11.80;86.40;;;;;;5119219;27;20047;-75
2022/03/07 12:27:25;;;;;;;3.10;1.00;;;11.80;84.90;;;;;;5119354;27;20047;-75
2022/03/07 12:29:51;;;;;;;4.10;1.40;;;11.90;82.80;;;;;;5101891;27;20051;-75
2022/03/07 12:32:18;;;;;;;3.55;1.15;;;12.00;83.90;;;;;;5118973;27;20095;-76
2022/03/07 12:34:45;;;;;;;4.78;0.93;;;12.60;83.60;;;;;;5101814;27;20058;-76
2022/03/07 12:37:18;;;;;;;5.13;1.40;;;13.00;82.10;;;;;;5100916;27;20047;-75
2022/03/07 12:39:49;;;;;;;4.13;1.20;;;13.50;81.50;;;;;;5136939;27;20039;-75
2022/03/07 12:42:17;;;;;;;4.55;1.08;;;13.90;81.00;;;;;;5102446;27;20050;-76
2022/03/07 12:44:43;;;;;;;3.65;0.85;;;14.00;80.00;;;;;;5101660;27;20096;-75
2022/03/07 12:47:10;;;;;;;2.05;0.93;;;13.70;79.90;;;;;;5118656;27;20043;-76
2022/03/07 12:49:36;;;;;;;2.00;0.63;;;14.00;79.70;;;;;;5118512;27;20047;-76
2022/03/07 12:52:06;;;;;;;3.88;0.88;;;14.60;78.40;;;;;;5084688;27;20095;-76